sensor_id;sensor_type;location;lat;lon;timestamp;pressure;altitude;pressure_sealevel;temperature;humidity
51452;BME280;37521;52.020;-1.740;2023-04-29T00:00:43;100136.09;;;8.38;100.00
51452;BME280;37521;52.020;-1.740;2023-04-29T00:03:11;100132.66;;;8.35;100.00
51452;BME280;37521;52.020;-1.740;2023-04-29T00:05:40;100137.19;;;8.31;100.00
51452;BME280;37521;52.020;-1.740;2023-04-29T00:08:08;100136.31;;;8.31;100.00
51452;BME280;37521;52.020;-1.740;2023-04-29T00:10:36;100133.63;;;8.32;100.00
51452;BME280;37521;52.020;-1.740;2023-04-29T00:13:05;100145.00;;;8.33;100.00
51452;BME280;37521;52.020;-1.740;2023-04-29T00:15:34;100139.88;;;8.30;100.00
51452;BME280;37521;52.020;-1.740;2023-04-29T00:18:03;100143.38;;;8.29;100.00
51452;BME280;37521;52.020;-1.740;2023-04-29T00:20:31;100140.81;;;8.27;100.00
51452;BME280;37521;52.020;-1.740;2023-04-29T00:22:59;100142.44;;;8.31;100.00
51452;BME280;37521;52.020;-1.740;2023-04-29T00:25:27;100140.66;;;8.32;100.00
51452;BME280;37521;52.020;-1.740;2023-04-29T00:27:55;100136.31;;;8.31;100.00
51452;BME280;37521;52.020;-1.740;2023-04-29T00:30:27;100148.56;;;8.32;100.00
51452;BME280;37521;52.020;-1.740;2023-04-29T00:32:57;100146.00;;;8.29;100.00
51452;BME280;37521;52.020;-1.740;2023-04-29T00:35:25;100145.13;;;8.30;100.00
51452;BME280;37521;52.020;-1.740;2023-04-29T00:37:53;100141.66;;;8.29;100.00
51452;BME280;37521;52.020;-1.740;2023-04-29T00:40:21;100141.66;;;8.28;100.00
51452;BME280;37521;52.020;-1.740;2023-04-29T00:42:49;100139.97;;;8.27;100.00
51452;BME280;37521;52.020;-1.740;2023-04-29T00:45:17;100147.84;;;8.27;100.00
51452;BME280;37521;52.020;-1.740;2023-04-29T00:47:45;100146.84;;;8.31;100.00
51452;BME280;37521;52.020;-1.740;2023-04-29T00:50:15;100143.28;;;8.32;100.00
51452;BME280;37521;52.020;-1.740;2023-04-29T00:52:43;100141.53;;;8.32;100.00
51452;BME280;37521;52.020;-1.740;2023-04-29T00:55:12;100143.34;;;8.30;100.00
51452;BME280;37521;52.020;-1.740;2023-04-29T00:57:40;100145.22;;;8.27;100.00
51452;BME280;37521;52.020;-1.740;2023-04-29T01:00:09;100144.38;;;8.26;100.00
51452;BME280;37521;52.020;-1.740;2023-04-29T01:02:37;100147.06;;;8.25;100.00
51452;BME280;37521;52.020;-1.740;2023-04-29T01:05:06;100147.16;;;8.22;100.00
51452;BME280;37521;52.020;-1.740;2023-04-29T01:07:41;100142.72;;;8.24;100.00
51452;BME280;37521;52.020;-1.740;2023-04-29T01:10:14;100139.22;;;8.23;100.00
51452;BME280;37521;52.020;-1.740;2023-04-29T01:12:53;100147.16;;;8.22;100.00
51452;BME280;37521;52.020;-1.740;2023-04-29T01:15:31;100137.59;;;8.19;100.00
51452;BME280;37521;52.020;-1.740;2023-04-29T01:18:04;100143.84;;;8.16;100.00
51452;BME280;37521;52.020;-1.740;2023-04-29T01:20:37;100149.19;;;8.13;100.00
51452;BME280;37521;52.020;-1.740;2023-04-29T01:23:06;100155.34;;;8.12;100.00
51452;BME280;37521;52.020;-1.740;2023-04-29T01:25:36;100145.81;;;8.10;100.00
51452;BME280;37521;52.020;-1.740;2023-04-29T01:28:20;100142.34;;;8.08;100.00
51452;BME280;37521;52.020;-1.740;2023-04-29T01:30:55;100143.28;;;8.07;100.00
51452;BME280;37521;52.020;-1.740;2023-04-29T01:33:31;100141.63;;;8.04;100.00
51452;BME280;37521;52.020;-1.740;2023-04-29T01:36:13;100142.53;;;8.03;100.00
51452;BME280;37521;52.020;-1.740;2023-04-29T01:38:48;100137.28;;;8.03;100.00
51452;BME280;37521;52.020;-1.740;2023-04-29T01:41:34;100145.09;;;8.05;100.00
51452;BME280;37521;52.020;-1.740;2023-04-29T01:44:14;100142.53;;;8.03;100.00
51452;BME280;37521;52.020;-1.740;2023-04-29T01:46:48;100142.53;;;8.03;100.00
51452;BME280;37521;52.020;-1.740;2023-04-29T01:49:19;100141.75;;;8.00;100.00
51452;BME280;37521;52.020;-1.740;2023-04-29T01:51:48;100146.16;;;7.99;100.00
51452;BME280;37521;52.020;-1.740;2023-04-29T01:54:18;100145.31;;;7.99;100.00
51452;BME280;37521;52.020;-1.740;2023-04-29T01:56:50;100140.09;;;7.97;100.00
51452;BME280;37521;52.020;-1.740;2023-04-29T01:59:26;100137.63;;;7.92;100.00
51452;BME280;37521;52.020;-1.740;2023-04-29T02:02:16;100138.63;;;7.88;100.00
51452;BME280;37521;52.020;-1.740;2023-04-29T02:04:57;100140.56;;;7.83;100.00
51452;BME280;37521;52.020;-1.740;2023-04-29T02:07:27;100140.72;;;7.79;100.00
51452;BME280;37521;52.020;-1.740;2023-04-29T02:09:58;100133.78;;;7.76;100.00
51452;BME280;37521;52.020;-1.740;2023-04-29T02:12:33;100145.25;;;7.74;100.00
51452;BME280;37521;52.020;-1.740;2023-04-29T02:15:01;100134.94;;;7.68;100.00
51452;BME280;37521;52.020;-1.740;2023-04-29T02:17:29;100135.03;;;7.64;100.00
51452;BME280;37521;52.020;-1.740;2023-04-29T02:19:58;100142.22;;;7.59;100.00
51452;BME280;37521;52.020;-1.740;2023-04-29T02:22:26;100140.56;;;7.55;100.00
51452;BME280;37521;52.020;-1.740;2023-04-29T02:24:55;100142.50;;;7.50;100.00
51452;BME280;37521;52.020;-1.740;2023-04-29T02:27:24;100147.84;;;7.47;100.00
51452;BME280;37521;52.020;-1.740;2023-04-29T02:29:54;100146.25;;;7.42;100.00
51452;BME280;37521;52.020;-1.740;2023-04-29T02:32:23;100133.44;;;7.32;100.00
51452;BME280;37521;52.020;-1.740;2023-04-29T02:34:51;100138.81;;;7.28;100.00
51452;BME280;37521;52.020;-1.740;2023-04-29T02:37:20;100141.63;;;7.22;100.00
51452;BME280;37521;52.020;-1.740;2023-04-29T02:39:48;100138.38;;;7.14;100.00
51452;BME280;37521;52.020;-1.740;2023-04-29T02:42:18;100140.31;;;7.07;100.00
51452;BME280;37521;52.020;-1.740;2023-04-29T02:44:46;100149.25;;;7.01;100.00
51452;BME280;37521;52.020;-1.740;2023-04-29T02:47:16;100159.91;;;6.95;100.00
51452;BME280;37521;52.020;-1.740;2023-04-29T02:49:44;100146.25;;;6.84;100.00
51452;BME280;37521;52.020;-1.740;2023-04-29T02:52:13;100144.91;;;6.71;100.00
51452;BME280;37521;52.020;-1.740;2023-04-29T02:54:42;100147.03;;;6.57;100.00
51452;BME280;37521;52.020;-1.740;2023-04-29T02:57:10;100155.25;;;6.44;100.00
51452;BME280;37521;52.020;-1.740;2023-04-29T02:59:38;100151.06;;;6.37;100.00
51452;BME280;37521;52.020;-1.740;2023-04-29T03:02:07;100151.13;;;6.34;100.00
51452;BME280;37521;52.020;-1.740;2023-04-29T03:04:36;100163.53;;;6.29;100.00
51452;BME280;37521;52.020;-1.740;2023-04-29T03:07:05;100158.75;;;6.11;100.00
51452;BME280;37521;52.020;-1.740;2023-04-29T03:09:35;100164.47;;;5.92;100.00
51452;BME280;37521;52.020;-1.740;2023-04-29T03:12:04;100159.47;;;5.80;100.00
51452;BME280;37521;52.020;-1.740;2023-04-29T03:14:32;100164.00;;;5.73;100.00
51452;BME280;37521;52.020;-1.740;2023-04-29T03:17:00;100169.34;;;5.70;100.00
51452;BME280;37521;52.020;-1.740;2023-04-29T03:19:28;100164.16;;;5.67;100.00
51452;BME280;37521;52.020;-1.740;2023-04-29T03:21:59;100165.09;;;5.65;100.00
51452;BME280;37521;52.020;-1.740;2023-04-29T03:24:28;100166.94;;;5.60;100.00
51452;BME280;37521;52.020;-1.740;2023-04-29T03:26:56;100158.28;;;5.58;100.00
51452;BME280;37521;52.020;-1.740;2023-04-29T03:29:26;100157.41;;;5.57;100.00
51452;BME280;37521;52.020;-1.740;2023-04-29T03:31:54;100163.66;;;5.52;100.00
51452;BME280;37521;52.020;-1.740;2023-04-29T03:34:23;100162.31;;;5.35;100.00
51452;BME280;37521;52.020;-1.740;2023-04-29T03:37:13;100157.38;;;5.20;100.00
51452;BME280;37521;52.020;-1.740;2023-04-29T03:39:46;100158.38;;;5.16;100.00
51452;BME280;37521;52.020;-1.740;2023-04-29T03:42:17;100164.47;;;5.16;100.00
51452;BME280;37521;52.020;-1.740;2023-04-29T03:44:47;100161.97;;;5.10;100.00
51452;BME280;37521;52.020;-1.740;2023-04-29T03:47:17;100167.53;;;4.95;100.00
51452;BME280;37521;52.020;-1.740;2023-04-29T03:49:45;100175.72;;;4.78;100.00
51452;BME280;37521;52.020;-1.740;2023-04-29T03:52:15;100173.22;;;4.72;100.00
51452;BME280;37521;52.020;-1.740;2023-04-29T03:54:46;100174.91;;;4.75;100.00
51452;BME280;37521;52.020;-1.740;2023-04-29T03:57:14;100173.06;;;4.80;100.00
51452;BME280;37521;52.020;-1.740;2023-04-29T03:59:42;100165.91;;;4.88;100.00
51452;BME280;37521;52.020;-1.740;2023-04-29T04:02:11;100169.59;;;4.79;100.00
51452;BME280;37521;52.020;-1.740;2023-04-29T04:04:39;100175.91;;;4.69;100.00
51452;BME280;37521;52.020;-1.740;2023-04-29T04:07:08;100174.22;;;4.65;100.00
51452;BME280;37521;52.020;-1.740;2023-04-29T04:09:58;100180.38;;;4.64;100.00
51452;BME280;37521;52.020;-1.740;2023-04-29T04:12:26;100186.53;;;4.61;100.00
51452;BME280;37521;52.020;-1.740;2023-04-29T04:14:55;100188.25;;;4.61;100.00
51452;BME280;37521;52.020;-1.740;2023-04-29T04:17:23;100189.19;;;4.58;100.00
51452;BME280;37521;52.020;-1.740;2023-04-29T04:19:51;100190.22;;;4.50;100.00
51452;BME280;37521;52.020;-1.740;2023-04-29T04:22:20;100190.34;;;4.44;100.00
51452;BME280;37521;52.020;-1.740;2023-04-29T04:25:08;100206.16;;;4.34;100.00
51452;BME280;37521;52.020;-1.740;2023-04-29T04:27:36;100207.19;;;4.26;100.00
51452;BME280;37521;52.020;-1.740;2023-04-29T04:30:08;100209.03;;;4.21;100.00
51452;BME280;37521;52.020;-1.740;2023-04-29T04:32:37;100213.38;;;4.20;100.00
51452;BME280;37521;52.020;-1.740;2023-04-29T04:35:06;100218.63;;;4.20;100.00
51452;BME280;37521;52.020;-1.740;2023-04-29T04:37:34;100214.31;;;4.18;100.00
51452;BME280;37521;52.020;-1.740;2023-04-29T04:40:02;100212.59;;;4.17;100.00
51452;BME280;37521;52.020;-1.740;2023-04-29T04:42:40;100219.59;;;4.13;100.00
51452;BME280;37521;52.020;-1.740;2023-04-29T04:45:12;100217.16;;;4.04;100.00
51452;BME280;37521;52.020;-1.740;2023-04-29T04:47:47;100220.69;;;4.00;100.00
51452;BME280;37521;52.020;-1.740;2023-04-29T04:50:20;100220.66;;;4.03;100.00
51452;BME280;37521;52.020;-1.740;2023-04-29T04:52:50;100225.72;;;4.12;100.00
51452;BME280;37521;52.020;-1.740;2023-04-29T04:55:39;100228.28;;;4.17;100.00
51452;BME280;37521;52.020;-1.740;2023-04-29T04:58:09;100225.59;;;4.20;100.00
51452;BME280;37521;52.020;-1.740;2023-04-29T05:00:42;100228.25;;;4.18;100.00
51452;BME280;37521;52.020;-1.740;2023-04-29T05:03:11;100237.00;;;4.16;100.00
51452;BME280;37521;52.020;-1.740;2023-04-29T05:05:39;100240.41;;;4.19;100.00
51452;BME280;37521;52.020;-1.740;2023-04-29T05:08:07;100241.34;;;4.17;100.00
51452;BME280;37521;52.020;-1.740;2023-04-29T05:10:40;100248.34;;;4.13;100.00
51452;BME280;37521;52.020;-1.740;2023-04-29T05:13:12;100248.50;;;4.04;100.00
51452;BME280;37521;52.020;-1.740;2023-04-29T05:15:41;100249.50;;;3.97;100.00
51452;BME280;37521;52.020;-1.740;2023-04-29T05:18:10;100245.19;;;3.93;100.00
51452;BME280;37521;52.020;-1.740;2023-04-29T05:20:41;100255.56;;;3.99;100.00
51452;BME280;37521;52.020;-1.740;2023-04-29T05:23:09;100260.59;;;4.11;100.00
51452;BME280;37521;52.020;-1.740;2023-04-29T05:25:39;100261.41;;;4.13;100.00
51452;BME280;37521;52.020;-1.740;2023-04-29T05:28:08;100261.25;;;4.24;100.00
51452;BME280;37521;52.020;-1.740;2023-04-29T05:30:40;100268.91;;;4.34;100.00
51452;BME280;37521;52.020;-1.740;2023-04-29T05:33:09;100264.47;;;4.40;100.00
51452;BME280;37521;52.020;-1.740;2023-04-29T05:35:38;100268.78;;;4.44;100.00
51452;BME280;37521;52.020;-1.740;2023-04-29T05:38:06;100259.97;;;4.48;100.00
51452;BME280;37521;52.020;-1.740;2023-04-29T05:40:37;100266.09;;;4.48;100.00
51452;BME280;37521;52.020;-1.740;2023-04-29T05:43:21;100270.41;;;4.49;100.00
51452;BME280;37521;52.020;-1.740;2023-04-29T05:45:52;100267.69;;;4.54;100.00
51452;BME280;37521;52.020;-1.740;2023-04-29T05:48:20;100264.22;;;4.55;100.00
51452;BME280;37521;52.020;-1.740;2023-04-29T05:50:48;100270.25;;;4.58;100.00
51452;BME280;37521;52.020;-1.740;2023-04-29T05:53:17;100277.91;;;4.68;100.00
51452;BME280;37521;52.020;-1.740;2023-04-29T05:55:46;100267.34;;;4.74;100.00
51452;BME280;37521;52.020;-1.740;2023-04-29T05:58:20;100281.19;;;4.80;100.00
51452;BME280;37521;52.020;-1.740;2023-04-29T06:00:48;100271.53;;;4.84;100.00
51452;BME280;37521;52.020;-1.740;2023-04-29T06:03:22;100279.22;;;4.91;100.00
51452;BME280;37521;52.020;-1.740;2023-04-29T06:06:00;100272.06;;;5.01;100.00
51452;BME280;37521;52.020;-1.740;2023-04-29T06:08:37;100282.31;;;5.12;100.00
51452;BME280;37521;52.020;-1.740;2023-04-29T06:11:15;100283.03;;;5.20;100.00
51452;BME280;37521;52.020;-1.740;2023-04-29T06:13:44;100290.63;;;5.32;100.00
51452;BME280;37521;52.020;-1.740;2023-04-29T06:16:13;100289.50;;;5.45;100.00
51452;BME280;37521;52.020;-1.740;2023-04-29T06:18:42;100289.28;;;5.55;100.00
51452;BME280;37521;52.020;-1.740;2023-04-29T06:21:12;100287.22;;;5.70;100.00
51452;BME280;37521;52.020;-1.740;2023-04-29T06:23:42;100284.22;;;5.87;100.00
51452;BME280;37521;52.020;-1.740;2023-04-29T06:26:15;100287.06;;;6.17;100.00
51452;BME280;37521;52.020;-1.740;2023-04-29T06:28:45;100282.00;;;6.45;100.00
51452;BME280;37521;52.020;-1.740;2023-04-29T06:31:14;100286.66;;;6.68;100.00
51452;BME280;37521;52.020;-1.740;2023-04-29T06:33:44;100291.38;;;6.89;100.00
51452;BME280;37521;52.020;-1.740;2023-04-29T06:36:12;100288.19;;;7.09;100.00
51452;BME280;37521;52.020;-1.740;2023-04-29T06:38:57;100290.34;;;7.26;100.00
51452;BME280;37521;52.020;-1.740;2023-04-29T06:41:37;100283.03;;;7.37;100.00
51452;BME280;37521;52.020;-1.740;2023-04-29T06:44:25;100286.19;;;7.48;100.00
51452;BME280;37521;52.020;-1.740;2023-04-29T06:47:19;100294.63;;;7.59;100.00
51452;BME280;37521;52.020;-1.740;2023-04-29T06:49:55;100297.88;;;7.68;100.00
51452;BME280;37521;52.020;-1.740;2023-04-29T06:52:23;100309.91;;;7.75;100.00
51452;BME280;37521;52.020;-1.740;2023-04-29T06:54:51;100309.75;;;7.81;100.00
51452;BME280;37521;52.020;-1.740;2023-04-29T06:57:19;100305.22;;;7.86;100.00
51452;BME280;37521;52.020;-1.740;2023-04-29T06:59:47;100307.72;;;7.89;100.00
51452;BME280;37521;52.020;-1.740;2023-04-29T07:02:15;100307.66;;;7.92;100.00
51452;BME280;37521;52.020;-1.740;2023-04-29T07:04:46;100312.72;;;7.98;100.00
51452;BME280;37521;52.020;-1.740;2023-04-29T07:07:16;100307.28;;;8.04;100.00
51452;BME280;37521;52.020;-1.740;2023-04-29T07:09:45;100312.31;;;8.12;100.00
51452;BME280;37521;52.020;-1.740;2023-04-29T07:12:13;100304.16;;;8.19;100.00
51452;BME280;37521;52.020;-1.740;2023-04-29T07:14:41;100315.22;;;8.31;100.00
51452;BME280;37521;52.020;-1.740;2023-04-29T07:17:09;100311.38;;;8.41;100.00
51452;BME280;37521;52.020;-1.740;2023-04-29T07:19:40;100315.47;;;8.51;100.00
51452;BME280;37521;52.020;-1.740;2023-04-29T07:22:11;100326.47;;;8.62;100.00
51452;BME280;37521;52.020;-1.740;2023-04-29T07:24:42;100325.25;;;8.72;100.00
51452;BME280;37521;52.020;-1.740;2023-04-29T07:27:14;100325.78;;;8.84;100.00
51452;BME280;37521;52.020;-1.740;2023-04-29T07:29:42;100320.19;;;8.93;100.00
51452;BME280;37521;52.020;-1.740;2023-04-29T07:32:10;100319.69;;;9.07;100.00
51452;BME280;37521;52.020;-1.740;2023-04-29T07:34:39;100324.47;;;9.20;100.00
51452;BME280;37521;52.020;-1.740;2023-04-29T07:37:08;100324.19;;;9.28;100.00
51452;BME280;37521;52.020;-1.740;2023-04-29T07:39:36;100327.47;;;9.35;100.00
51452;BME280;37521;52.020;-1.740;2023-04-29T07:42:05;100328.19;;;9.40;100.00
51452;BME280;37521;52.020;-1.740;2023-04-29T07:44:34;100334.09;;;9.46;100.00
51452;BME280;37521;52.020;-1.740;2023-04-29T07:47:03;100334.50;;;9.59;100.00
51452;BME280;37521;52.020;-1.740;2023-04-29T07:49:31;100327.94;;;9.69;100.00
51452;BME280;37521;52.020;-1.740;2023-04-29T07:52:00;100336.56;;;9.74;100.00
51452;BME280;37521;52.020;-1.740;2023-04-29T07:54:29;100330.19;;;9.80;100.00
51452;BME280;37521;52.020;-1.740;2023-04-29T07:56:58;100330.81;;;9.87;100.00
51452;BME280;37521;52.020;-1.740;2023-04-29T07:59:28;100331.56;;;9.90;100.00
51452;BME280;37521;52.020;-1.740;2023-04-29T08:01:56;100336.56;;;9.98;100.00
51452;BME280;37521;52.020;-1.740;2023-04-29T08:04:25;100340.75;;;10.02;100.00
51452;BME280;37521;52.020;-1.740;2023-04-29T08:06:59;100332.56;;;10.09;100.00
51452;BME280;37521;52.020;-1.740;2023-04-29T08:09:28;100329.50;;;10.20;100.00
51452;BME280;37521;52.020;-1.740;2023-04-29T08:11:56;100329.97;;;10.31;100.00
51452;BME280;37521;52.020;-1.740;2023-04-29T08:14:24;100332.97;;;10.44;100.00
51452;BME280;37521;52.020;-1.740;2023-04-29T08:16:54;100331.75;;;10.53;100.00
51452;BME280;37521;52.020;-1.740;2023-04-29T08:19:22;100332.97;;;10.66;100.00
51452;BME280;37521;52.020;-1.740;2023-04-29T08:21:51;100329.66;;;10.81;100.00
51452;BME280;37521;52.020;-1.740;2023-04-29T08:24:19;100329.00;;;10.97;100.00
51452;BME280;37521;52.020;-1.740;2023-04-29T08:26:49;100334.38;;;11.15;100.00
51452;BME280;37521;52.020;-1.740;2023-04-29T08:29:18;100335.78;;;11.24;100.00
51452;BME280;37521;52.020;-1.740;2023-04-29T08:31:46;100330.06;;;11.33;100.00
51452;BME280;37521;52.020;-1.740;2023-04-29T08:34:16;100333.16;;;11.43;100.00
51452;BME280;37521;52.020;-1.740;2023-04-29T08:36:44;100334.81;;;11.45;100.00
51452;BME280;37521;52.020;-1.740;2023-04-29T08:39:12;100334.53;;;11.52;100.00
51452;BME280;37521;52.020;-1.740;2023-04-29T08:41:40;100342.97;;;11.60;100.00
51452;BME280;37521;52.020;-1.740;2023-04-29T08:44:11;100332.91;;;11.68;100.00
51452;BME280;37521;52.020;-1.740;2023-04-29T08:46:39;100340.63;;;11.72;100.00
51452;BME280;37521;52.020;-1.740;2023-04-29T08:49:08;100338.78;;;11.74;100.00
51452;BME280;37521;52.020;-1.740;2023-04-29T08:51:38;100344.00;;;11.76;100.00
51452;BME280;37521;52.020;-1.740;2023-04-29T08:54:06;100346.34;;;11.84;100.00
51452;BME280;37521;52.020;-1.740;2023-04-29T08:56:36;100348.47;;;11.94;100.00
51452;BME280;37521;52.020;-1.740;2023-04-29T08:59:08;100343.75;;;12.01;100.00
51452;BME280;37521;52.020;-1.740;2023-04-29T09:01:38;100353.63;;;11.97;100.00
51452;BME280;37521;52.020;-1.740;2023-04-29T09:04:13;100352.63;;;12.00;100.00
51452;BME280;37521;52.020;-1.740;2023-04-29T09:06:44;100355.19;;;12.02;100.00
51452;BME280;37521;52.020;-1.740;2023-04-29T09:09:13;100357.19;;;11.96;100.00
51452;BME280;37521;52.020;-1.740;2023-04-29T09:11:41;100363.94;;;11.85;100.00
51452;BME280;37521;52.020;-1.740;2023-04-29T09:14:09;100374.75;;;11.79;100.00
51452;BME280;37521;52.020;-1.740;2023-04-29T09:16:38;100366.75;;;11.80;100.00
51452;BME280;37521;52.020;-1.740;2023-04-29T09:19:06;100364.50;;;11.91;100.00
51452;BME280;37521;52.020;-1.740;2023-04-29T09:21:34;100367.50;;;12.03;100.00
51452;BME280;37521;52.020;-1.740;2023-04-29T09:24:04;100376.09;;;12.08;100.00
51452;BME280;37521;52.020;-1.740;2023-04-29T09:26:40;100360.59;;;12.36;100.00
51452;BME280;37521;52.020;-1.740;2023-04-29T09:29:11;100359.59;;;12.58;100.00
51452;BME280;37521;52.020;-1.740;2023-04-29T09:31:40;100367.41;;;12.78;100.00
51452;BME280;37521;52.020;-1.740;2023-04-29T09:34:09;100358.84;;;13.07;100.00
51452;BME280;37521;52.020;-1.740;2023-04-29T09:36:41;100360.63;;;13.42;100.00
51452;BME280;37521;52.020;-1.740;2023-04-29T09:39:13;100359.13;;;13.53;100.00
51452;BME280;37521;52.020;-1.740;2023-04-29T09:41:57;100360.88;;;13.37;100.00
51452;BME280;37521;52.020;-1.740;2023-04-29T09:44:26;100359.00;;;13.39;100.00
51452;BME280;37521;52.020;-1.740;2023-04-29T09:46:59;100354.66;;;13.71;100.00
51452;BME280;37521;52.020;-1.740;2023-04-29T09:49:32;100352.06;;;14.18;100.00
51452;BME280;37521;52.020;-1.740;2023-04-29T09:52:03;100354.34;;;14.56;100.00
51452;BME280;37521;52.020;-1.740;2023-04-29T09:54:34;100350.19;;;14.98;100.00
51452;BME280;37521;52.020;-1.740;2023-04-29T09:57:03;100354.09;;;14.91;100.00
51452;BME280;37521;52.020;-1.740;2023-04-29T09:59:34;100346.75;;;15.10;100.00
51452;BME280;37521;52.020;-1.740;2023-04-29T10:02:09;100340.97;;;15.18;100.00
51452;BME280;37521;52.020;-1.740;2023-04-29T10:04:43;100348.56;;;15.10;100.00
51452;BME280;37521;52.020;-1.740;2023-04-29T10:07:13;100356.38;;;14.83;100.00
51452;BME280;37521;52.020;-1.740;2023-04-29T10:09:45;100357.16;;;14.69;100.00
51452;BME280;37521;52.020;-1.740;2023-04-29T10:12:15;100346.81;;;14.49;100.00
51452;BME280;37521;52.020;-1.740;2023-04-29T10:14:47;100354.09;;;14.45;100.00
51452;BME280;37521;52.020;-1.740;2023-04-29T10:17:23;100358.41;;;14.48;100.00
51452;BME280;37521;52.020;-1.740;2023-04-29T10:19:57;100355.03;;;14.44;100.00
51452;BME280;37521;52.020;-1.740;2023-04-29T10:22:32;100352.66;;;14.55;100.00
51452;BME280;37521;52.020;-1.740;2023-04-29T10:25:05;100352.66;;;14.55;100.00
51452;BME280;37521;52.020;-1.740;2023-04-29T10:27:36;100353.25;;;14.60;100.00
51452;BME280;37521;52.020;-1.740;2023-04-29T10:30:06;100349.91;;;14.73;100.00
51452;BME280;37521;52.020;-1.740;2023-04-29T10:32:39;100346.44;;;14.70;100.00
51452;BME280;37521;52.020;-1.740;2023-04-29T10:35:18;100339.78;;;14.63;100.00
51452;BME280;37521;52.020;-1.740;2023-04-29T10:37:48;100344.94;;;14.66;100.00
51452;BME280;37521;52.020;-1.740;2023-04-29T10:40:23;100343.22;;;14.65;100.00
51452;BME280;37521;52.020;-1.740;2023-04-29T10:42:55;100350.25;;;14.66;100.00
51452;BME280;37521;52.020;-1.740;2023-04-29T10:45:24;100355.56;;;14.66;100.00
51452;BME280;37521;52.020;-1.740;2023-04-29T10:48:13;100348.69;;;14.78;100.00
51452;BME280;37521;52.020;-1.740;2023-04-29T10:51:00;100355.56;;;14.66;100.00
51452;BME280;37521;52.020;-1.740;2023-04-29T10:53:29;100368.09;;;14.49;100.00
51452;BME280;37521;52.020;-1.740;2023-04-29T10:56:04;100353.84;;;14.50;100.00
51452;BME280;37521;52.020;-1.740;2023-04-29T10:58:42;100366.59;;;14.75;100.00
51452;BME280;37521;52.020;-1.740;2023-04-29T11:01:11;100361.25;;;15.35;100.00
51452;BME280;37521;52.020;-1.740;2023-04-29T11:03:48;100357.41;;;15.97;100.00
51452;BME280;37521;52.020;-1.740;2023-04-29T11:06:22;100356.91;;;16.19;100.00
51452;BME280;37521;52.020;-1.740;2023-04-29T11:09:10;100354.41;;;16.30;100.00
51452;BME280;37521;52.020;-1.740;2023-04-29T11:11:43;100345.16;;;16.63;100.00
51452;BME280;37521;52.020;-1.740;2023-04-29T11:14:13;100345.50;;;16.44;100.00
51452;BME280;37521;52.020;-1.740;2023-04-29T11:16:49;100357.47;;;16.10;100.00
51452;BME280;37521;52.020;-1.740;2023-04-29T11:19:18;100351.50;;;16.48;100.00
51452;BME280;37521;52.020;-1.740;2023-04-29T11:21:46;100344.59;;;16.72;100.00
51452;BME280;37521;52.020;-1.740;2023-04-29T11:24:15;100356.31;;;16.28;100.00
51452;BME280;37521;52.020;-1.740;2023-04-29T11:26:44;100356.47;;;15.84;100.00
51452;BME280;37521;52.020;-1.740;2023-04-29T11:29:15;100363.53;;;15.26;100.00
51452;BME280;37521;52.020;-1.740;2023-04-29T11:31:45;100365.56;;;14.77;100.00
51452;BME280;37521;52.020;-1.740;2023-04-29T11:34:13;100366.38;;;14.48;100.00
51452;BME280;37521;52.020;-1.740;2023-04-29T11:36:41;100361.66;;;14.53;100.00
51452;BME280;37521;52.020;-1.740;2023-04-29T11:39:11;100355.91;;;14.60;100.00
51452;BME280;37521;52.020;-1.740;2023-04-29T11:41:39;100355.41;;;14.84;100.00
51452;BME280;37521;52.020;-1.740;2023-04-29T11:44:10;100351.38;;;14.92;100.00
51452;BME280;37521;52.020;-1.740;2023-04-29T11:46:39;100359.47;;;14.75;100.00
51452;BME280;37521;52.020;-1.740;2023-04-29T11:49:07;100362.69;;;14.50;100.00
51452;BME280;37521;52.020;-1.740;2023-04-29T11:51:35;100361.28;;;14.27;100.00
51452;BME280;37521;52.020;-1.740;2023-04-29T11:54:03;100360.09;;;14.01;100.00
51452;BME280;37521;52.020;-1.740;2023-04-29T11:56:36;100365.53;;;13.82;100.00
51452;BME280;37521;52.020;-1.740;2023-04-29T11:59:04;100359.25;;;13.68;100.00
51452;BME280;37521;52.020;-1.740;2023-04-29T12:01:36;100359.81;;;13.57;100.00
51452;BME280;37521;52.020;-1.740;2023-04-29T12:04:04;100359.22;;;13.52;100.00
51452;BME280;37521;52.020;-1.740;2023-04-29T12:06:33;100364.25;;;13.56;100.00
51452;BME280;37521;52.020;-1.740;2023-04-29T12:09:01;100353.78;;;13.71;100.00
51452;BME280;37521;52.020;-1.740;2023-04-29T12:11:30;100355.00;;;13.81;100.00
51452;BME280;37521;52.020;-1.740;2023-04-29T12:13:58;100351.25;;;13.85;100.00
51452;BME280;37521;52.020;-1.740;2023-04-29T12:16:29;100340.78;;;13.82;100.00
51452;BME280;37521;52.020;-1.740;2023-04-29T12:18:59;100344.06;;;13.87;100.00
51452;BME280;37521;52.020;-1.740;2023-04-29T12:21:28;100347.56;;;13.87;100.00
51452;BME280;37521;52.020;-1.740;2023-04-29T12:23:58;100347.91;;;13.81;100.00
51452;BME280;37521;52.020;-1.740;2023-04-29T12:26:27;100347.66;;;13.86;100.00
51452;BME280;37521;52.020;-1.740;2023-04-29T12:28:57;100345.09;;;14.00;100.00
51452;BME280;37521;52.020;-1.740;2023-04-29T12:31:32;100332.50;;;14.20;100.00
51452;BME280;37521;52.020;-1.740;2023-04-29T12:34:03;100338.94;;;14.31;100.00
51452;BME280;37521;52.020;-1.740;2023-04-29T12:36:35;100334.59;;;14.46;100.00
51452;BME280;37521;52.020;-1.740;2023-04-29T12:39:05;100332.94;;;14.59;100.00
51452;BME280;37521;52.020;-1.740;2023-04-29T12:41:37;100342.88;;;14.71;100.00
51452;BME280;37521;52.020;-1.740;2023-04-29T12:44:06;100340.06;;;14.89;100.00
51452;BME280;37521;52.020;-1.740;2023-04-29T12:46:37;100343.06;;;14.98;100.00
51452;BME280;37521;52.020;-1.740;2023-04-29T12:49:07;100338.75;;;14.96;100.00
51452;BME280;37521;52.020;-1.740;2023-04-29T12:51:35;100345.88;;;14.95;100.00
51452;BME280;37521;52.020;-1.740;2023-04-29T12:54:04;100339.59;;;14.96;100.00